createdAt,value
2018-12-16T00:01:40.184Z,23.33
2018-12-16T00:04:09.299Z,22.57
2018-12-16T00:06:38.599Z,22.87
2018-12-16T00:09:07.361Z,22.10
2018-12-16T00:11:36.147Z,23.37
2018-12-16T00:14:05.318Z,22.33
2018-12-16T00:16:34.730Z,23.53
2018-12-16T00:19:03.548Z,21.30
2018-12-16T00:21:32.324Z,22.30
2018-12-16T00:24:01.174Z,21.40
2018-12-16T00:26:40.967Z,22.93
2018-12-16T00:29:09.827Z,23.23
2018-12-16T00:31:38.620Z,23.27
2018-12-16T00:34:07.406Z,23.43
2018-12-16T00:36:36.226Z,23.63
2018-12-16T00:39:05.823Z,25.10
2018-12-16T00:41:34.634Z,26.13
2018-12-16T00:44:03.434Z,29.27
2018-12-16T00:46:32.288Z,27.33
2018-12-16T00:49:01.094Z,28.27
2018-12-16T00:51:29.919Z,30.30
2018-12-16T00:53:58.730Z,30.47
2018-12-16T00:56:27.523Z,28.50
2018-12-16T00:58:56.310Z,29.80
2018-12-16T01:01:25.112Z,27.73
2018-12-16T01:03:53.919Z,28.73
2018-12-16T01:06:22.779Z,30.80
2018-12-16T01:08:51.583Z,29.20
2018-12-16T01:11:20.385Z,29.73
2018-12-16T01:13:50.069Z,28.23
2018-12-16T01:16:18.862Z,30.20
2018-12-16T01:18:47.659Z,30.37
2018-12-16T01:21:16.436Z,32.67
2018-12-16T01:23:45.226Z,32.50
2018-12-16T01:26:14.026Z,30.00
2018-12-16T01:28:42.839Z,32.27
2018-12-16T01:31:11.671Z,32.07
2018-12-16T01:33:40.472Z,30.63
2018-12-16T01:36:09.245Z,31.10
2018-12-16T01:38:38.035Z,33.17
2018-12-16T01:41:06.843Z,31.30
2018-12-16T01:43:35.625Z,31.90
2018-12-16T01:46:04.411Z,32.33
2018-12-16T01:48:33.212Z,32.93
2018-12-16T01:51:01.992Z,30.43
2018-12-16T01:53:31.678Z,31.50
2018-12-16T01:56:00.479Z,31.43
2018-12-16T01:58:29.384Z,29.37
2018-12-16T02:00:58.151Z,33.13
2018-12-16T02:03:26.949Z,33.07
2018-12-16T02:05:55.763Z,33.70
2018-12-16T02:08:26.160Z,35.80
2018-12-16T02:10:53.367Z,33.50
2018-12-16T02:13:22.227Z,33.67
2018-12-16T02:15:51.035Z,35.87
2018-12-16T02:18:19.858Z,34.43
2018-12-16T02:20:48.659Z,33.83
2018-12-16T02:23:17.465Z,36.83
2018-12-16T02:25:46.258Z,35.33
2018-12-16T02:28:15.168Z,33.63
2018-12-16T02:30:43.993Z,34.47
2018-12-16T02:33:12.793Z,33.07
2018-12-16T02:35:41.573Z,36.47
2018-12-16T02:38:10.440Z,35.27
2018-12-16T02:40:39.268Z,35.77
2018-12-16T02:43:08.118Z,36.53
2018-12-16T02:45:37.402Z,34.23
2018-12-16T02:48:06.206Z,35.57
2018-12-16T02:50:35.008Z,34.27
2018-12-16T02:53:04.805Z,32.93
2018-12-16T02:55:32.892Z,33.33
2018-12-16T02:58:01.688Z,36.23
2018-12-16T03:00:30.994Z,32.17
2018-12-16T03:03:00.770Z,35.97
2018-12-16T03:05:30.245Z,34.60
2018-12-16T03:07:59.016Z,33.50
2018-12-16T03:10:27.815Z,34.57
2018-12-16T03:12:56.677Z,33.17
2018-12-16T03:15:25.536Z,38.57
2018-12-16T03:17:54.471Z,35.37
2018-12-16T03:20:23.368Z,37.57
2018-12-16T03:22:52.159Z,38.03
2018-12-16T03:25:20.963Z,35.63
2018-12-16T03:27:49.760Z,37.97
2018-12-16T03:30:18.570Z,36.87
2018-12-16T03:32:47.348Z,35.70
2018-12-16T03:35:16.138Z,37.33
2018-12-16T03:37:45.718Z,31.97
2018-12-16T03:40:14.515Z,37.17
2018-12-16T03:42:43.628Z,37.07
2018-12-16T03:45:12.510Z,36.37
2018-12-16T03:47:41.358Z,35.70
2018-12-16T03:50:10.316Z,36.47
2018-12-16T03:52:39.106Z,38.40
2018-12-16T03:55:08.038Z,37.17
2018-12-16T03:57:36.821Z,35.77
2018-12-16T04:00:06.879Z,36.17
2018-12-16T04:02:35.691Z,36.77
2018-12-16T04:05:04.564Z,39.53
2018-12-16T04:07:33.680Z,36.13
2018-12-16T04:10:02.471Z,37.90
2018-12-16T04:12:31.928Z,35.73
2018-12-16T04:15:00.792Z,35.90
2018-12-16T04:17:30.284Z,37.17
2018-12-16T04:19:59.075Z,39.63
2018-12-16T04:22:27.943Z,37.23
2018-12-16T04:24:56.738Z,33.77
2018-12-16T04:27:25.666Z,37.10
2018-12-16T04:29:54.531Z,37.43
2018-12-16T04:32:23.336Z,37.13
2018-12-16T04:34:52.130Z,36.60
2018-12-16T04:37:20.964Z,38.17
2018-12-16T04:39:49.769Z,35.73
2018-12-16T04:42:18.567Z,36.40
2018-12-16T04:44:47.429Z,37.53
2018-12-16T04:47:16.325Z,37.10
2018-12-16T04:49:45.126Z,38.03
2018-12-16T04:52:13.938Z,35.77
2018-12-16T04:54:42.835Z,39.50
2018-12-16T04:57:11.620Z,39.77
2018-12-16T04:59:40.435Z,39.07
2018-12-16T05:02:09.262Z,38.80
2018-12-16T05:04:38.059Z,37.77
2018-12-16T05:07:06.843Z,40.73
2018-12-16T05:09:35.656Z,38.43
2018-12-16T05:12:04.456Z,36.50
2018-12-16T05:14:33.293Z,36.63
2018-12-16T05:17:02.099Z,36.90
2018-12-16T05:19:30.878Z,37.00
2018-12-16T05:21:59.788Z,38.33
2018-12-16T05:24:28.599Z,39.63
2018-12-16T05:26:57.715Z,38.00
2018-12-16T05:29:26.508Z,37.13
2018-12-16T05:31:55.313Z,34.13
2018-12-16T05:34:24.099Z,37.67
2018-12-16T05:36:52.915Z,40.63
2018-12-16T05:39:21.716Z,36.80
2018-12-16T05:41:50.532Z,35.80
2018-12-16T05:44:19.328Z,37.10
2018-12-16T05:46:49.080Z,37.63
2018-12-16T05:49:18.128Z,40.43
2018-12-16T05:51:46.992Z,39.30
2018-12-16T05:54:15.901Z,38.77
2018-12-16T05:56:44.703Z,35.13
2018-12-16T05:59:13.507Z,40.77
2018-12-16T06:01:42.350Z,38.53
2018-12-16T06:04:11.130Z,38.27
2018-12-16T06:06:39.983Z,37.47
2018-12-16T06:09:08.769Z,39.67
2018-12-16T06:11:37.644Z,37.87
2018-12-16T06:14:06.446Z,37.03
2018-12-16T06:16:35.806Z,38.53
2018-12-16T06:19:04.046Z,38.47
2018-12-16T06:21:33.237Z,39.07
2018-12-16T06:24:02.027Z,37.43
2018-12-16T06:26:30.895Z,38.60
2018-12-16T06:28:59.750Z,39.67
2018-12-16T06:31:28.542Z,41.67
2018-12-16T06:33:57.399Z,40.77
2018-12-16T06:36:26.178Z,39.23
2018-12-16T06:38:55.032Z,38.63
2018-12-16T06:41:23.836Z,41.27
2018-12-16T06:43:52.655Z,37.40
2018-12-16T06:46:21.947Z,39.20
2018-12-16T06:48:50.779Z,39.67
2018-12-16T06:51:19.582Z,37.80
2018-12-16T06:53:48.375Z,40.93
2018-12-16T06:56:17.175Z,37.10
2018-12-16T06:58:46.019Z,41.10
2018-12-16T07:01:16.024Z,39.80
2018-12-16T07:03:43.648Z,39.13
2018-12-16T07:06:12.514Z,37.67
2018-12-16T07:08:42.608Z,37.40
2018-12-16T07:11:11.426Z,39.50
2018-12-16T07:13:40.242Z,36.57
2018-12-16T07:16:09.049Z,41.63
2018-12-16T07:18:37.848Z,36.73
2018-12-16T07:21:06.660Z,41.07
2018-12-16T07:23:35.490Z,38.87
2018-12-16T07:26:04.313Z,39.23
2018-12-16T07:28:33.621Z,37.30
2018-12-16T07:31:02.448Z,40.07
2018-12-16T07:33:31.484Z,45.47
2018-12-16T07:36:00.345Z,41.47
2018-12-16T07:38:29.848Z,43.93
2018-12-16T07:40:58.651Z,45.33
2018-12-16T07:43:27.473Z,46.97
2018-12-16T07:45:56.244Z,47.97
2018-12-16T07:48:25.065Z,42.33
2018-12-16T07:50:53.886Z,42.70
2018-12-16T07:53:22.786Z,45.33
2018-12-16T07:55:51.608Z,44.17
2018-12-16T07:58:20.454Z,42.97
2018-12-16T08:00:49.278Z,44.83
2018-12-16T08:03:18.097Z,40.27
2018-12-16T08:05:47.538Z,40.70
2018-12-16T08:08:16.317Z,42.97
2018-12-16T08:10:45.131Z,42.53
2018-12-16T08:13:16.518Z,40.77
2018-12-16T08:15:45.885Z,44.57
2018-12-16T08:18:14.677Z,44.40
2018-12-16T08:20:43.526Z,39.33
2018-12-16T08:23:12.508Z,42.07
2018-12-16T08:25:41.303Z,44.13
2018-12-16T08:28:10.099Z,54.87
2018-12-16T08:30:38.928Z,59.30
2018-12-16T08:33:07.974Z,43.40
2018-12-16T08:35:36.726Z,40.33
2018-12-16T08:38:05.511Z,43.13
2018-12-16T08:40:34.357Z,40.40
2018-12-16T08:43:03.639Z,42.50
2018-12-16T08:45:33.196Z,41.47
2018-12-16T08:48:01.990Z,41.17
2018-12-16T08:50:33.483Z,42.87
2018-12-16T08:53:02.580Z,42.47
2018-12-16T08:55:32.605Z,43.17
2018-12-16T08:58:01.477Z,40.90
2018-12-16T09:00:30.880Z,45.27
2018-12-16T09:02:59.731Z,43.10
2018-12-16T09:05:30.226Z,44.63
2018-12-16T09:07:59.486Z,42.77
2018-12-16T09:10:34.125Z,46.27
2018-12-16T09:12:57.150Z,45.00
2018-12-16T09:15:25.947Z,40.27
2018-12-16T09:17:54.779Z,41.23
2018-12-16T09:20:23.624Z,42.10
2018-12-16T09:22:52.768Z,39.43
2018-12-16T09:25:21.619Z,39.80
2018-12-16T09:27:50.411Z,51.30
2018-12-16T09:30:19.351Z,43.83
2018-12-16T09:32:48.226Z,45.57
2018-12-16T09:35:17.019Z,42.00
2018-12-16T09:37:45.929Z,43.60
2018-12-16T09:40:14.763Z,45.47
2018-12-16T09:42:43.743Z,42.00
2018-12-16T09:45:12.727Z,43.17
2018-12-16T09:47:41.572Z,45.10
2018-12-16T09:50:11.182Z,44.70
2018-12-16T09:52:40.238Z,43.80
2018-12-16T09:55:09.057Z,48.47
2018-12-16T09:57:37.854Z,41.73
2018-12-16T10:00:07.941Z,45.63
2018-12-16T10:02:37.514Z,43.63
2018-12-16T10:05:07.487Z,39.93
2018-12-16T10:07:36.991Z,45.87
2018-12-16T10:10:09.015Z,44.97
2018-12-16T10:12:37.931Z,46.20
2018-12-16T10:15:06.983Z,43.90
2018-12-16T10:17:36.360Z,43.57
2018-12-16T10:20:06.141Z,41.30
2018-12-16T10:22:35.054Z,40.13
2018-12-16T10:25:04.138Z,46.93
2018-12-16T10:27:33.218Z,41.10
2018-12-16T10:30:02.122Z,41.00
2018-12-16T10:32:32.479Z,40.10
2018-12-16T10:35:00.084Z,42.40
2018-12-16T10:37:29.811Z,39.40
2018-12-16T10:39:58.832Z,40.63
2018-12-16T10:42:27.750Z,40.57
2018-12-16T10:44:56.556Z,39.57
2018-12-16T10:47:25.628Z,40.37
2018-12-16T10:49:55.080Z,44.07
2018-12-16T10:52:23.911Z,38.60
2018-12-16T10:54:58.411Z,38.80
2018-12-16T10:57:21.615Z,37.83
2018-12-16T10:59:50.443Z,39.60
2018-12-16T11:02:20.246Z,37.23
2018-12-16T11:04:49.076Z,36.93
2018-12-16T11:07:17.979Z,41.00
2018-12-16T11:09:46.780Z,38.77
2018-12-16T11:12:15.569Z,37.77
2018-12-16T11:14:44.369Z,39.10
2018-12-16T11:17:13.172Z,36.57
2018-12-16T11:19:42.005Z,42.30
2018-12-16T11:22:10.891Z,39.47
2018-12-16T11:24:39.756Z,38.10
2018-12-16T11:27:08.535Z,42.67
2018-12-16T11:29:37.340Z,41.77
2018-12-16T11:32:06.137Z,41.57
2018-12-16T11:34:34.934Z,43.60
2018-12-16T11:37:03.821Z,45.53
2018-12-16T11:39:32.698Z,41.13
2018-12-16T11:42:01.555Z,42.47
2018-12-16T11:44:30.355Z,38.77
2018-12-16T11:46:59.230Z,40.87
2018-12-16T11:49:28.046Z,36.90
2018-12-16T11:51:57.157Z,43.43
2018-12-16T11:54:25.947Z,41.33
2018-12-16T11:56:54.747Z,39.20
2018-12-16T11:59:23.568Z,40.80
2018-12-16T12:01:52.362Z,40.73
2018-12-16T12:04:21.183Z,42.93
2018-12-16T12:06:50.001Z,40.97
2018-12-16T12:09:18.923Z,37.63
2018-12-16T12:11:47.899Z,38.47
2018-12-16T12:14:16.871Z,41.23
2018-12-16T12:16:45.634Z,41.43
2018-12-16T12:19:14.420Z,39.87
2018-12-16T12:21:43.275Z,37.03
2018-12-16T12:24:12.103Z,37.10
2018-12-16T12:26:40.905Z,36.43
2018-12-16T12:29:09.707Z,35.87
2018-12-16T12:31:38.636Z,35.50
2018-12-16T12:34:07.752Z,33.53
2018-12-16T12:36:36.565Z,37.97
2018-12-16T12:39:05.822Z,33.80
2018-12-16T12:41:34.618Z,34.63
2018-12-16T12:44:03.471Z,34.67
2018-12-16T12:46:32.283Z,33.53
2018-12-16T12:49:01.076Z,32.60
2018-12-16T12:51:30.219Z,36.73
2018-12-16T12:53:59.071Z,73.70
2018-12-16T12:56:27.899Z,48.97
2018-12-16T12:58:56.746Z,35.87
2018-12-16T13:01:25.680Z,30.17
2018-12-16T13:03:54.488Z,33.33
2018-12-16T13:06:23.287Z,33.37
2018-12-16T13:08:52.163Z,30.03
2018-12-16T13:11:21.028Z,32.57
2018-12-16T13:13:50.734Z,34.47
2018-12-16T13:16:19.543Z,30.37
2018-12-16T13:18:48.336Z,28.50
2018-12-16T13:21:17.216Z,28.23
2018-12-16T13:23:46.000Z,31.97
2018-12-16T13:26:14.788Z,31.50
2018-12-16T13:28:43.661Z,31.20
2018-12-16T13:31:12.444Z,30.30
2018-12-16T13:33:41.224Z,33.20
2018-12-16T13:36:11.006Z,51.03
2018-12-16T13:38:39.825Z,37.83
2018-12-16T13:41:08.631Z,31.60
2018-12-16T13:43:37.732Z,29.27
2018-12-16T13:46:06.535Z,28.67
2018-12-16T13:48:35.624Z,28.63
2018-12-16T13:51:04.415Z,29.10
2018-12-16T13:53:33.257Z,29.77
2018-12-16T13:56:02.077Z,28.30
2018-12-16T13:58:30.839Z,27.47
2018-12-16T14:00:59.649Z,28.97
2018-12-16T14:03:28.450Z,26.07
2018-12-16T14:05:57.240Z,33.43
2018-12-16T14:08:26.333Z,30.10
2018-12-16T14:10:55.185Z,35.73
2018-12-16T14:13:24.099Z,31.70
2018-12-16T14:15:52.983Z,25.93
2018-12-16T14:18:21.835Z,29.77
2018-12-16T14:20:50.630Z,26.73
2018-12-16T14:23:19.963Z,24.27
2018-12-16T14:25:48.754Z,27.37
2018-12-16T14:28:17.584Z,23.30
2018-12-16T14:30:46.424Z,24.57
2018-12-16T14:33:15.258Z,26.17
2018-12-16T14:35:44.995Z,25.77
2018-12-16T14:38:12.915Z,23.77
2018-12-16T14:40:41.722Z,26.67
2018-12-16T14:43:10.555Z,25.67
2018-12-16T14:45:39.402Z,25.63
2018-12-16T14:48:08.320Z,24.43
2018-12-16T14:50:37.104Z,25.43
2018-12-16T14:53:05.908Z,24.43
2018-12-16T14:55:34.756Z,26.90
2018-12-16T14:58:03.558Z,26.50
2018-12-16T15:00:32.359Z,26.50
2018-12-16T15:03:01.164Z,24.73
2018-12-16T15:05:30.000Z,25.03
2018-12-16T15:07:58.778Z,26.83
2018-12-16T15:10:27.999Z,39.23
2018-12-16T15:12:56.856Z,26.43
2018-12-16T15:15:25.888Z,25.93
2018-12-16T15:17:54.668Z,26.23
2018-12-16T15:20:23.525Z,23.60
2018-12-16T15:22:52.426Z,24.63
2018-12-16T15:25:21.228Z,26.10
2018-12-16T15:27:50.016Z,26.57
2018-12-16T15:30:18.818Z,25.37
2018-12-16T15:32:47.611Z,25.00
2018-12-16T15:35:16.450Z,24.47
2018-12-16T15:37:45.333Z,22.70
2018-12-16T15:40:14.130Z,25.90
2018-12-16T15:42:42.918Z,25.33
2018-12-16T15:45:11.724Z,26.17
2018-12-16T15:47:40.615Z,28.60
2018-12-16T15:50:09.850Z,26.27
2018-12-16T15:52:38.734Z,28.40
2018-12-16T15:55:09.779Z,22.50
2018-12-16T15:57:38.562Z,23.83
2018-12-16T16:00:07.662Z,26.10
2018-12-16T16:02:36.495Z,33.53
2018-12-16T16:05:05.521Z,25.80
2018-12-16T16:07:34.404Z,33.00
2018-12-16T16:10:03.609Z,28.30
2018-12-16T16:12:32.467Z,26.37
2018-12-16T16:15:01.300Z,26.10
2018-12-16T16:17:30.193Z,36.83
2018-12-16T16:19:59.008Z,32.17
2018-12-16T16:22:27.952Z,27.30
2018-12-16T16:24:56.937Z,26.97
2018-12-16T16:27:25.718Z,27.63
2018-12-16T16:29:54.500Z,25.17
2018-12-16T16:32:23.353Z,30.03
2018-12-16T16:34:52.275Z,29.17
2018-12-16T16:37:21.153Z,44.77
2018-12-16T16:39:50.478Z,34.60
2018-12-16T16:42:19.315Z,31.00
2018-12-16T16:44:48.126Z,26.93
2018-12-16T16:47:17.106Z,28.33
2018-12-16T16:49:46.063Z,28.00
2018-12-16T16:52:14.859Z,27.33
2018-12-16T16:54:43.687Z,28.40
2018-12-16T16:57:12.488Z,29.43
2018-12-16T16:59:42.163Z,27.00
2018-12-16T17:02:10.959Z,29.70
2018-12-16T17:04:40.887Z,30.80
2018-12-16T17:07:09.695Z,30.13
2018-12-16T17:09:39.083Z,25.93
2018-12-16T17:12:07.881Z,28.57
2018-12-16T17:14:37.380Z,30.43
2018-12-16T17:17:06.227Z,32.43
2018-12-16T17:19:35.011Z,29.77
2018-12-16T17:22:03.852Z,36.83
2018-12-16T17:24:32.627Z,28.97
2018-12-16T17:27:01.426Z,28.27
2018-12-16T17:29:30.328Z,29.33
2018-12-16T17:31:59.140Z,29.40
2018-12-16T17:34:27.935Z,31.60
2018-12-16T17:36:56.734Z,36.37
2018-12-16T17:39:26.201Z,46.13
2018-12-16T17:41:54.989Z,35.17
2018-12-16T17:44:23.840Z,29.17
2018-12-16T17:46:53.959Z,29.80
2018-12-16T17:49:22.878Z,29.80
2018-12-16T17:51:51.827Z,30.47
2018-12-16T17:54:20.674Z,29.33
2018-12-16T17:56:49.480Z,31.50
2018-12-16T17:59:18.336Z,29.93
2018-12-16T18:01:47.138Z,32.20
2018-12-16T18:04:16.099Z,29.33
2018-12-16T18:06:44.903Z,28.90
2018-12-16T18:09:13.808Z,29.67
2018-12-16T18:11:43.085Z,29.33
2018-12-16T18:14:11.902Z,29.00
2018-12-16T18:16:40.698Z,28.63
2018-12-16T18:19:09.479Z,28.10
2018-12-16T18:21:38.330Z,28.13
2018-12-16T18:24:07.123Z,28.27
2018-12-16T18:26:35.926Z,27.03
2018-12-16T18:29:04.719Z,27.87
2018-12-16T18:31:33.619Z,27.97
2018-12-16T18:34:02.505Z,24.33
2018-12-16T18:36:31.273Z,28.27
2018-12-16T18:39:00.155Z,29.70
2018-12-16T18:41:28.945Z,32.37
2018-12-16T18:43:57.762Z,29.93
2018-12-16T18:46:26.511Z,28.33
2018-12-16T18:48:55.315Z,26.90
2018-12-16T18:51:24.113Z,28.60
2018-12-16T18:53:53.102Z,28.60
2018-12-16T18:56:21.986Z,28.53
2018-12-16T18:58:50.778Z,28.43
2018-12-16T19:01:19.585Z,27.17
2018-12-16T19:03:48.380Z,24.93
2018-12-16T19:06:20.194Z,24.97
2018-12-16T19:08:48.982Z,27.27
2018-12-16T19:11:17.765Z,26.97
2018-12-16T19:13:46.593Z,25.53
2018-12-16T19:16:15.375Z,23.00
2018-12-16T19:18:44.181Z,25.97
2018-12-16T19:21:12.955Z,27.73
2018-12-16T19:23:41.807Z,27.27
2018-12-16T19:26:10.588Z,25.53
2018-12-16T19:28:39.362Z,25.30
2018-12-16T19:31:08.165Z,25.30
2018-12-16T19:33:37.103Z,25.63
2018-12-16T19:36:05.893Z,25.60
2018-12-16T19:38:34.692Z,24.00
2018-12-16T19:41:03.467Z,25.60
2018-12-16T19:43:32.296Z,24.37
2018-12-16T19:46:01.080Z,24.47
2018-12-16T19:48:29.899Z,24.97
2018-12-16T19:50:58.739Z,22.93
2018-12-16T19:53:27.531Z,27.87
2018-12-16T19:55:56.394Z,27.87
2018-12-16T19:58:25.190Z,26.87
2018-12-16T20:00:54.975Z,27.60
2018-12-16T20:03:23.811Z,30.23
2018-12-16T20:05:58.005Z,25.93
2018-12-16T20:08:26.790Z,25.40
2018-12-16T20:10:55.597Z,27.93
2018-12-16T20:13:24.383Z,28.57
2018-12-16T20:15:53.252Z,29.33
2018-12-16T20:18:22.123Z,29.43
2018-12-16T20:20:50.919Z,30.07
2018-12-16T20:23:19.720Z,27.97
2018-12-16T20:25:48.500Z,28.67
2018-12-16T20:28:17.282Z,23.00
2018-12-16T20:30:46.077Z,25.53
2018-12-16T20:33:14.884Z,23.97
2018-12-16T20:35:43.671Z,25.10
2018-12-16T20:38:13.030Z,24.73
2018-12-16T20:40:41.835Z,23.80
2018-12-16T20:43:10.623Z,20.73
2018-12-16T20:45:39.414Z,22.20
2018-12-16T20:48:08.259Z,21.67
2018-12-16T20:50:37.042Z,24.53
2018-12-16T20:53:05.869Z,25.03
2018-12-16T20:55:34.671Z,24.10
2018-12-16T20:58:03.454Z,23.60
2018-12-16T21:00:32.419Z,22.57
2018-12-16T21:03:01.931Z,24.20
2018-12-16T21:05:30.801Z,24.17
2018-12-16T21:07:59.605Z,22.53
2018-12-16T21:10:28.471Z,21.80
2018-12-16T21:13:03.788Z,22.70
2018-12-16T21:15:38.003Z,23.27
2018-12-16T21:18:12.169Z,25.27
2018-12-16T21:20:40.958Z,25.03
2018-12-16T21:23:09.738Z,25.37
2018-12-16T21:25:38.569Z,25.87
2018-12-16T21:28:07.463Z,26.07
2018-12-16T21:30:37.636Z,26.60
2018-12-16T21:33:06.433Z,27.50
2018-12-16T21:35:35.260Z,26.10
2018-12-16T21:38:04.116Z,26.83
2018-12-16T21:40:32.934Z,25.77
2018-12-16T21:43:01.670Z,31.20
2018-12-16T21:45:31.247Z,28.87
2018-12-16T21:48:00.039Z,27.97
2018-12-16T21:50:28.819Z,26.73
2018-12-16T21:52:57.603Z,27.77
2018-12-16T21:55:26.411Z,25.07
2018-12-16T21:57:55.205Z,25.63
2018-12-16T22:00:24.060Z,23.17
2018-12-16T22:02:52.903Z,27.20
2018-12-16T22:05:25.851Z,24.83
2018-12-16T22:07:54.636Z,26.07
2018-12-16T22:10:23.447Z,26.37
2018-12-16T22:12:52.898Z,26.53
2018-12-16T22:15:21.803Z,26.57
2018-12-16T22:17:50.642Z,25.77
2018-12-16T22:20:20.011Z,24.53
2018-12-16T22:22:48.810Z,29.67
2018-12-16T22:25:17.600Z,30.43
2018-12-16T22:27:46.391Z,31.47
2018-12-16T22:30:15.922Z,28.13
2018-12-16T22:32:45.571Z,26.67
2018-12-16T22:35:14.365Z,34.27
2018-12-16T22:37:43.161Z,30.13
2018-12-16T22:40:11.948Z,26.43
2018-12-16T22:42:41.558Z,30.50
2018-12-16T22:45:10.330Z,32.07
2018-12-16T22:47:39.119Z,24.53
2018-12-16T22:50:07.927Z,26.60
2018-12-16T22:52:36.725Z,23.30
2018-12-16T22:55:06.363Z,28.50
2018-12-16T22:57:35.189Z,23.77
2018-12-16T23:00:04.059Z,26.27
2018-12-16T23:02:32.947Z,23.93
2018-12-16T23:05:01.816Z,23.40
2018-12-16T23:07:30.708Z,24.13
2018-12-16T23:09:59.498Z,23.73
2018-12-16T23:12:28.276Z,24.60
2018-12-16T23:14:57.050Z,23.07
2018-12-16T23:17:25.880Z,25.43
2018-12-16T23:20:28.627Z,25.37
2018-12-16T23:22:57.762Z,26.00
2018-12-16T23:25:26.556Z,26.87
2018-12-16T23:27:55.412Z,27.70
2018-12-16T23:30:24.268Z,25.90
2018-12-16T23:32:53.063Z,24.80
2018-12-16T23:35:21.928Z,26.50
2018-12-16T23:37:50.698Z,25.67
2018-12-16T23:40:26.148Z,27.20
2018-12-16T23:42:54.924Z,29.07
2018-12-16T23:45:23.806Z,25.80
2018-12-16T23:47:52.599Z,27.83
2018-12-16T23:50:21.393Z,29.40
2018-12-16T23:52:50.276Z,26.43
2018-12-16T23:55:19.141Z,26.33
2018-12-16T23:57:47.896Z,28.47
